Anselmo, Nebraska
Current Conditions -  °F | °C
As of 2:53 PM on Saturday 25 Oct 2014 (Local Time) from KBBW Reporting Station
Clear Clear  
Wind Chill: 73°   Ceiling: Unl
Heat Index: 73°   Visibility: 10mi
Dew Point: 44°   Wind: 10mph
Humidity: 35%   Direction: 100°E
Pressure: 30.06"   Gusts: NA
Location:  41.62°N, 99.87°W
Report Text: KBBW 251953Z AUTO 10009KT 10SM CLR 23/07 A3006 RMK AO2 SLP172 T02280067
Loading
Personal Weather Stations






























Interactive Weather Map
Tropical Storm Tracking
New forecast layout! Learn more

10-Day Weather Forecast

Advertisements
Track Severe Weather on mobile